Time;durP1;ratioP1;P1;durP2;ratioP2;P2;SDS_P1;SDS_P2;PMS_P1;PMS_P2;Temp;Humidity;BMP_temperature;BMP_pressure;BME280_temperature;BME280_humidity;BME280_pressure;Samples;Min_cycle;Max_cycle;Signal;HPM_P1;HPM_P2
2023/03/18 00:01:46;;;;;;;6.70;6.10;;;9.90;99.90;;;;;;5070070;28;20423;-68
2023/03/18 00:04:13;;;;;;;6.85;6.15;;;9.90;99.90;;;;;;5067128;28;20420;-67
2023/03/18 00:06:40;;;;;;;6.40;5.80;;;9.90;99.90;;;;;;5068797;28;20898;-66
2023/03/18 00:09:10;;;;;;;6.90;6.20;;;9.90;99.90;;;;;;5068590;28;20419;-67
2023/03/18 00:11:38;;;;;;;7.60;6.50;;;9.90;99.90;;;;;;5068699;28;20831;-67
2023/03/18 00:14:04;;;;;;;6.88;6.18;;;9.90;99.90;;;;;;5068145;28;20524;-67
2023/03/18 00:16:31;;;;;;;6.88;6.10;;;9.90;99.90;;;;;;5068645;28;20416;-67
2023/03/18 00:18:58;;;;;;;8.02;6.45;;;9.90;99.90;;;;;;5067915;28;20767;-66
2023/03/18 00:21:25;;;;;;;7.10;6.40;;;9.90;99.90;;;;;;5068604;28;20410;-67
2023/03/18 00:23:55;;;;;;;8.40;6.28;;;9.90;99.90;;;;;;5067949;28;20421;-67
2023/03/18 00:26:23;;;;;;;11.02;6.63;;;9.90;99.90;;;;;;5068770;28;20422;-68
2023/03/18 00:28:50;;;;;;;9.35;6.65;;;10.00;99.90;;;;;;5067970;28;20414;-69
2023/03/18 00:31:17;;;;;;;7.10;6.40;;;10.00;99.90;;;;;;5068810;28;20427;-65
2023/03/18 00:33:45;;;;;;;7.25;6.55;;;10.00;99.90;;;;;;5067094;28;20419;-67
2023/03/18 00:36:13;;;;;;;7.40;6.70;;;10.00;99.90;;;;;;5068519;28;20485;-69
2023/03/18 00:38:41;;;;;;;7.47;6.75;;;10.00;99.90;;;;;;5068359;28;20474;-69
2023/03/18 00:41:11;;;;;;;7.25;6.50;;;9.90;99.90;;;;;;5068740;28;20416;-67
2023/03/18 00:43:45;;;;;;;8.70;6.60;;;9.90;99.90;;;;;;5066804;28;20515;-68
2023/03/18 00:46:15;;;;;;;6.50;5.90;;;10.00;99.90;;;;;;5068238;28;20416;-69
2023/03/18 00:48:41;;;;;;;7.65;6.95;;;9.90;99.90;;;;;;5067483;28;20415;-68
2023/03/18 00:51:12;;;;;;;10.27;6.50;;;10.00;99.90;;;;;;5067762;28;20790;-69
2023/03/18 00:53:39;;;;;;;7.30;6.57;;;10.00;99.90;;;;;;5066387;28;20481;-68
2023/03/18 00:56:07;;;;;;;9.20;7.80;;;10.00;99.90;;;;;;5068346;28;20884;-66
2023/03/18 00:58:35;;;;;;;10.82;9.18;;;10.00;99.90;;;;;;5068279;28;20439;-68
2023/03/18 01:01:04;;;;;;;12.60;10.97;;;10.10;99.90;;;;;;5068111;28;20419;-67
2023/03/18 01:03:32;;;;;;;15.38;11.90;;;10.10;99.90;;;;;;5066147;28;20412;-69
2023/03/18 01:06:00;;;;;;;10.80;9.90;;;10.10;99.90;;;;;;5067845;28;20828;-66
2023/03/18 01:08:28;;;;;;;10.25;9.25;;;10.10;99.90;;;;;;5068227;28;20529;-69
2023/03/18 01:10:55;;;;;;;8.70;7.70;;;10.10;99.90;;;;;;5067533;28;20466;-68
2023/03/18 01:13:24;;;;;;;9.32;7.63;;;10.10;99.90;;;;;;5067050;28;20422;-68
2023/03/18 01:15:51;;;;;;;9.30;7.13;;;10.10;99.90;;;;;;5068389;28;20498;-68
2023/03/18 01:18:19;;;;;;;8.70;6.40;;;10.10;99.90;;;;;;5068050;28;20431;-66
2023/03/18 01:20:47;;;;;;;7.10;5.90;;;10.20;99.90;;;;;;5067616;28;20423;-69
2023/03/18 01:23:14;;;;;;;8.40;6.10;;;10.20;99.90;;;;;;5067617;28;20413;-67
2023/03/18 01:25:41;;;;;;;8.30;6.10;;;10.20;99.90;;;;;;5068381;28;20412;-68
2023/03/18 01:28:08;;;;;;;7.22;6.03;;;10.20;99.90;;;;;;5067303;28;20607;-66
2023/03/18 01:30:35;;;;;;;7.38;6.03;;;10.10;99.90;;;;;;5068034;28;20423;-66
2023/03/18 01:33:03;;;;;;;6.57;5.90;;;10.10;99.90;;;;;;5067078;28;20416;-67
2023/03/18 01:35:32;;;;;;;7.55;6.45;;;10.10;99.90;;;;;;5066835;28;20416;-67
2023/03/18 01:37:59;;;;;;;6.22;5.63;;;10.10;99.90;;;;;;5068119;28;20436;-67
2023/03/18 01:40:27;;;;;;;7.35;6.20;;;10.10;99.90;;;;;;5067635;28;20952;-67
2023/03/18 01:42:57;;;;;;;8.27;6.85;;;10.10;99.90;;;;;;5066285;28;20913;-67
2023/03/18 01:45:27;;;;;;;6.70;6.13;;;10.10;99.90;;;;;;5067517;28;20434;-67
2023/03/18 01:47:56;;;;;;;6.80;6.10;;;10.20;99.90;;;;;;5067227;28;20427;-67
2023/03/18 01:50:26;;;;;;;8.70;6.15;;;10.20;99.90;;;;;;5066746;28;20427;-66
2023/03/18 01:52:58;;;;;;;7.47;6.68;;;10.20;99.90;;;;;;5066757;28;20480;-65
2023/03/18 01:55:27;;;;;;;7.80;6.40;;;10.20;99.90;;;;;;5067699;28;20810;-68
2023/03/18 01:57:55;;;;;;;8.02;6.55;;;10.20;99.90;;;;;;5064880;28;20419;-69
2023/03/18 02:00:22;;;;;;;8.20;6.63;;;10.20;99.90;;;;;;5067188;28;20502;-65
2023/03/18 02:02:51;;;;;;;6.68;6.07;;;10.20;99.90;;;;;;5066043;28;20419;-66
2023/03/18 02:05:22;;;;;;;7.55;6.38;;;10.20;99.90;;;;;;5066090;28;20416;-68
2023/03/18 02:07:50;;;;;;;7.10;6.10;;;10.20;99.90;;;;;;5067200;28;20441;-66
2023/03/18 02:10:21;;;;;;;8.27;6.60;;;10.10;99.90;;;;;;5067944;28;20725;-69
2023/03/18 02:12:51;;;;;;;9.43;7.60;;;10.10;99.90;;;;;;5065711;28;20782;-67
2023/03/18 02:15:21;;;;;;;8.10;7.30;;;10.00;99.90;;;;;;5066987;28;20415;-68
2023/03/18 02:17:52;;;;;;;8.03;7.30;;;10.00;99.90;;;;;;5067259;28;20953;-66
2023/03/18 02:20:33;;;;;;;8.05;7.30;;;9.90;99.90;;;;;;5066654;28;20415;-66
2023/03/18 02:23:07;;;;;;;9.07;8.18;;;9.90;99.90;;;;;;5066882;28;20894;-67
2023/03/18 02:25:42;;;;;;;9.63;7.85;;;9.80;99.90;;;;;;5067723;28;20422;-67
2023/03/18 02:28:13;;;;;;;9.32;8.38;;;9.70;99.90;;;;;;5067112;28;20415;-68
2023/03/18 02:30:43;;;;;;;9.18;8.30;;;9.70;99.90;;;;;;5067626;28;20428;-66
2023/03/18 02:33:11;;;;;;;11.02;9.07;;;9.60;99.90;;;;;;5067392;28;20420;-66
2023/03/18 02:35:39;;;;;;;12.85;9.48;;;9.60;99.90;;;;;;5070466;28;20837;-67
2023/03/18 02:38:06;;;;;;;10.38;9.27;;;9.60;99.90;;;;;;5070910;28;20423;-68
2023/03/18 02:40:35;;;;;;;10.63;9.63;;;9.50;99.90;;;;;;5071028;28;20418;-68
2023/03/18 02:43:22;;;;;;;11.23;9.10;;;9.50;99.90;;;;;;5069202;28;20418;-67
2023/03/18 02:46:05;;;;;;;10.70;9.60;;;9.40;99.90;;;;;;5070226;28;20904;-68
2023/03/18 02:48:37;;;;;;;11.53;9.60;;;9.40;99.90;;;;;;5069846;28;20936;-68
2023/03/18 02:51:05;;;;;;;11.30;10.32;;;9.40;99.90;;;;;;5070031;28;20917;-68
2023/03/18 02:53:32;;;;;;;11.00;9.90;;;9.30;99.90;;;;;;5067822;28;20415;-68
2023/03/18 02:55:58;;;;;;;11.20;10.10;;;9.30;99.90;;;;;;5064456;28;20751;-67
2023/03/18 02:58:27;;;;;;;11.40;10.30;;;9.40;99.90;;;;;;5072250;28;20878;-66
2023/03/18 03:00:53;;;;;;;12.70;10.60;;;9.30;99.90;;;;;;5074965;28;20894;-66
2023/03/18 03:03:20;;;;;;;11.10;10.00;;;9.30;99.90;;;;;;5070143;28;20793;-67
2023/03/18 03:05:47;;;;;;;12.25;11.02;;;9.30;99.90;;;;;;5069338;28;20782;-67
2023/03/18 03:08:15;;;;;;;11.52;10.50;;;9.20;99.90;;;;;;5070874;28;20428;-68
2023/03/18 03:10:41;;;;;;;11.15;10.15;;;9.20;99.90;;;;;;5070738;28;20797;-67
2023/03/18 03:13:10;;;;;;;13.90;12.50;;;9.10;99.90;;;;;;5056566;28;20955;-64
2023/03/18 03:15:39;;;;;;;11.98;10.98;;;9.10;99.90;;;;;;5050996;28;20436;-66
2023/03/18 03:18:07;;;;;;;12.20;11.00;;;9.10;99.90;;;;;;5049608;28;20418;-67
2023/03/18 03:20:36;;;;;;;12.77;11.48;;;9.00;99.90;;;;;;5048827;28;20444;-67
2023/03/18 03:23:03;;;;;;;13.07;11.80;;;9.10;99.90;;;;;;5049544;28;20432;-67
2023/03/18 03:25:31;;;;;;;14.27;12.88;;;9.10;99.90;;;;;;5049806;28;20413;-67
2023/03/18 03:27:58;;;;;;;14.05;12.77;;;9.00;99.90;;;;;;5048987;28;20462;-67
2023/03/18 03:30:25;;;;;;;14.20;12.80;;;9.00;99.90;;;;;;5049553;28;20484;-66
2023/03/18 03:32:53;;;;;;;13.93;12.27;;;8.90;99.90;;;;;;5048570;28;20852;-67
2023/03/18 03:35:21;;;;;;;14.70;13.40;;;8.90;99.90;;;;;;5048260;28;20911;-67
2023/03/18 03:37:48;;;;;;;15.10;13.60;;;8.80;99.90;;;;;;5049564;28;20420;-68
2023/03/18 03:40:16;;;;;;;14.80;13.20;;;8.80;99.90;;;;;;5050322;28;20769;-67
2023/03/18 03:42:44;;;;;;;15.07;13.52;;;8.70;99.90;;;;;;5048464;28;20775;-66
2023/03/18 03:45:12;;;;;;;15.00;13.40;;;8.70;99.90;;;;;;5049869;28;20528;-66
2023/03/18 03:47:39;;;;;;;13.90;12.70;;;8.80;99.90;;;;;;5049624;28;20534;-68
2023/03/18 03:50:10;;;;;;;14.73;13.32;;;8.70;99.90;;;;;;5049101;28;20425;-68
2023/03/18 03:52:37;;;;;;;15.57;14.07;;;8.70;99.90;;;;;;5049521;28;20475;-67
2023/03/18 03:55:06;;;;;;;14.80;13.30;;;8.70;99.90;;;;;;5050311;28;20414;-66
2023/03/18 03:57:32;;;;;;;14.50;13.18;;;8.70;99.90;;;;;;5065294;28;20850;-68
2023/03/18 03:59:59;;;;;;;14.60;13.10;;;8.70;99.90;;;;;;5070013;28;20434;-67
2023/03/18 04:02:26;;;;;;;14.82;13.32;;;8.70;99.90;;;;;;5067868;28;20419;-68
2023/03/18 04:04:53;;;;;;;13.93;12.43;;;8.60;99.90;;;;;;5068048;28;20415;-67
2023/03/18 04:07:21;;;;;;;15.38;13.80;;;8.50;99.90;;;;;;5068704;28;20440;-68
2023/03/18 04:09:48;;;;;;;15.88;14.38;;;8.40;99.90;;;;;;5069278;28;20430;-68
2023/03/18 04:12:17;;;;;;;15.33;13.80;;;8.40;99.90;;;;;;5067682;28;20431;-68
2023/03/18 04:14:44;;;;;;;15.60;14.20;;;8.30;99.90;;;;;;5068676;28;20792;-67
2023/03/18 04:17:11;;;;;;;15.80;14.30;;;8.30;99.90;;;;;;5069145;28;20447;-68
2023/03/18 04:19:38;;;;;;;17.85;15.85;;;8.20;99.90;;;;;;5066488;28;20454;-65
2023/03/18 04:22:05;;;;;;;15.63;14.15;;;8.20;99.90;;;;;;5069474;28;20420;-69
2023/03/18 04:24:34;;;;;;;16.13;14.63;;;8.20;99.90;;;;;;5067560;28;20415;-68
2023/03/18 04:27:00;;;;;;;17.77;16.10;;;8.10;99.90;;;;;;5068887;28;20427;-66
2023/03/18 04:29:27;;;;;;;17.60;15.90;;;8.20;99.90;;;;;;5068973;28;20425;-68
2023/03/18 04:31:55;;;;;;;17.13;15.20;;;8.20;99.90;;;;;;5068520;28;20542;-66
2023/03/18 04:34:22;;;;;;;17.20;15.50;;;8.10;99.90;;;;;;5066400;28;20553;-65
2023/03/18 04:36:49;;;;;;;16.17;14.67;;;8.10;99.90;;;;;;5068748;28;20572;-67
2023/03/18 04:39:16;;;;;;;17.20;15.45;;;8.10;99.90;;;;;;5068455;28;20422;-66
2023/03/18 04:41:44;;;;;;;16.40;14.80;;;8.10;99.90;;;;;;5068586;28;20416;-69
2023/03/18 04:44:11;;;;;;;17.02;15.52;;;8.10;99.90;;;;;;5066754;28;20415;-70
2023/03/18 04:46:37;;;;;;;15.50;14.00;;;8.00;99.90;;;;;;5068107;28;20457;-66
2023/03/18 04:49:04;;;;;;;16.75;15.20;;;8.00;99.90;;;;;;5067605;28;20801;-67
2023/03/18 04:51:31;;;;;;;16.75;15.25;;;8.10;99.90;;;;;;5067961;28;20430;-68
2023/03/18 04:53:58;;;;;;;14.93;13.43;;;8.10;99.90;;;;;;5067490;28;20419;-68
2023/03/18 04:56:25;;;;;;;15.43;13.93;;;8.20;99.90;;;;;;5067369;28;20416;-67
2023/03/18 04:58:53;;;;;;;13.80;12.60;;;8.30;99.90;;;;;;5068450;28;20435;-67
2023/03/18 05:01:20;;;;;;;13.85;12.48;;;8.30;99.90;;;;;;5068451;28;20418;-70
2023/03/18 05:03:47;;;;;;;12.70;11.40;;;8.30;99.90;;;;;;5067218;28;20426;-67
2023/03/18 05:06:22;;;;;;;12.27;11.07;;;8.30;99.90;;;;;;5067195;28;20411;-67
2023/03/18 05:08:50;;;;;;;11.50;10.40;;;8.40;99.90;;;;;;5068510;28;20408;-66
2023/03/18 05:11:16;;;;;;;10.93;10.00;;;8.50;99.90;;;;;;5068032;28;20469;-67
2023/03/18 05:13:43;;;;;;;11.23;10.13;;;8.60;99.90;;;;;;5067173;28;20427;-69
2023/03/18 05:16:11;;;;;;;10.55;9.63;;;8.60;99.90;;;;;;5068030;28;20414;-67
2023/03/18 05:18:39;;;;;;;10.10;9.20;;;8.60;99.90;;;;;;5067687;28;20415;-69
2023/03/18 05:21:07;;;;;;;10.20;9.20;;;8.70;99.90;;;;;;5067000;28;20415;-67
2023/03/18 05:23:34;;;;;;;9.25;8.45;;;8.80;99.90;;;;;;5067497;28;20438;-69
2023/03/18 05:26:02;;;;;;;10.10;9.00;;;8.80;99.90;;;;;;5068123;28;20967;-67
2023/03/18 05:28:29;;;;;;;10.00;9.10;;;8.80;99.90;;;;;;5067888;28;20415;-66
2023/03/18 05:30:55;;;;;;;10.00;8.80;;;8.80;99.90;;;;;;5068440;28;20423;-69
2023/03/18 05:33:24;;;;;;;8.95;8.15;;;8.80;99.90;;;;;;5066650;28;20909;-68
2023/03/18 05:35:50;;;;;;;9.60;8.60;;;8.80;99.90;;;;;;5067419;28;20418;-68
2023/03/18 05:38:17;;;;;;;9.90;9.00;;;8.80;99.90;;;;;;5068387;28;20415;-67
2023/03/18 05:40:44;;;;;;;9.50;8.68;;;8.70;99.90;;;;;;5068480;28;20777;-67
2023/03/18 05:43:11;;;;;;;9.32;8.43;;;8.70;99.90;;;;;;5066843;28;20415;-69
2023/03/18 05:45:38;;;;;;;9.40;8.50;;;8.70;99.90;;;;;;5067601;28;20417;-67
2023/03/18 05:48:06;;;;;;;9.90;8.90;;;8.70;99.90;;;;;;5067584;28;20415;-67
2023/03/18 05:50:37;;;;;;;8.77;7.97;;;8.80;99.90;;;;;;5066635;28;20411;-67
2023/03/18 05:53:05;;;;;;;9.20;8.13;;;8.80;99.90;;;;;;5067407;28;20454;-71
2023/03/18 05:55:32;;;;;;;9.33;8.43;;;8.80;99.90;;;;;;5058247;28;20416;-70
2023/03/18 05:57:59;;;;;;;10.10;9.10;;;8.90;99.90;;;;;;5067518;28;20423;-71
2023/03/18 06:00:27;;;;;;;9.60;8.70;;;8.80;99.90;;;;;;5067791;28;20418;-71
2023/03/18 06:02:54;;;;;;;10.10;9.20;;;8.90;99.90;;;;;;5067012;28;20584;-71
2023/03/18 06:05:21;;;;;;;8.98;8.18;;;8.90;99.90;;;;;;5066304;28;20411;-71
2023/03/18 06:07:49;;;;;;;9.60;8.70;;;8.90;99.90;;;;;;5068158;28;20462;-70
2023/03/18 06:10:16;;;;;;;9.63;8.82;;;8.90;99.90;;;;;;5072569;28;20763;-69
2023/03/18 06:12:44;;;;;;;9.10;8.20;;;9.00;99.90;;;;;;5070548;28;20477;-69
2023/03/18 06:15:12;;;;;;;9.30;8.50;;;9.10;99.90;;;;;;5070317;28;20751;-71
2023/03/18 06:17:40;;;;;;;9.30;8.40;;;9.10;99.90;;;;;;5070322;28;20442;-69
2023/03/18 06:20:09;;;;;;;9.00;8.20;;;9.20;99.90;;;;;;5070473;28;20450;-71
2023/03/18 06:22:36;;;;;;;8.80;8.00;;;9.20;99.90;;;;;;5071047;28;20441;-70
2023/03/18 06:25:07;;;;;;;9.45;8.40;;;9.30;99.90;;;;;;5068108;28;20801;-70
2023/03/18 06:27:33;;;;;;;8.37;7.57;;;9.30;99.90;;;;;;5063738;28;20455;-70
2023/03/18 06:30:01;;;;;;;9.30;8.50;;;9.40;99.90;;;;;;5073789;28;20448;-70
2023/03/18 06:32:28;;;;;;;9.30;8.50;;;9.40;99.90;;;;;;5079696;28;20558;-70
2023/03/18 06:34:55;;;;;;;9.52;8.60;;;9.50;99.90;;;;;;5062276;28;20419;-69
2023/03/18 06:37:22;;;;;;;9.00;8.10;;;9.50;99.90;;;;;;5057878;28;20419;-72
2023/03/18 06:39:49;;;;;;;8.13;7.43;;;9.60;99.90;;;;;;5074807;28;20421;-73
2023/03/18 06:42:17;;;;;;;8.70;7.80;;;9.70;99.90;;;;;;5068797;28;20416;-71
2023/03/18 06:44:49;;;;;;;8.00;7.30;;;9.70;99.90;;;;;;5069619;28;20848;-72
2023/03/18 06:47:16;;;;;;;7.65;7.00;;;9.80;99.90;;;;;;5068599;28;20826;-72
2023/03/18 06:49:43;;;;;;;7.78;7.10;;;9.90;99.90;;;;;;5085689;28;20417;-71
2023/03/18 06:52:10;;;;;;;8.10;7.30;;;9.90;99.90;;;;;;5080332;28;20423;-71
2023/03/18 06:54:37;;;;;;;8.32;7.53;;;9.90;99.90;;;;;;5069139;28;20504;-70
2023/03/18 06:57:05;;;;;;;7.18;6.57;;;10.00;99.90;;;;;;5075306;28;20418;-69
2023/03/18 06:59:33;;;;;;;7.28;6.57;;;10.10;99.90;;;;;;5056960;28;21035;-71
2023/03/18 07:02:00;;;;;;;7.40;6.80;;;10.20;99.90;;;;;;5064293;28;20437;-73
2023/03/18 07:04:26;;;;;;;7.40;6.70;;;10.20;99.90;;;;;;5065908;28;20435;-71
2023/03/18 07:06:55;;;;;;;7.05;6.35;;;10.30;99.90;;;;;;5068707;28;20412;-70
2023/03/18 07:09:23;;;;;;;7.67;6.97;;;10.40;99.90;;;;;;5069308;28;20990;-72
2023/03/18 07:11:50;;;;;;;7.10;6.50;;;10.50;99.90;;;;;;5062327;28;20931;-70
2023/03/18 07:14:17;;;;;;;6.50;6.00;;;10.50;99.90;;;;;;5062536;28;20407;-70
2023/03/18 07:16:45;;;;;;;7.22;6.57;;;10.60;99.90;;;;;;5098721;22;20442;-78
2023/03/18 07:19:12;;;;;;;7.70;6.90;;;10.70;99.90;;;;;;5074902;28;20429;-77
2023/03/18 07:21:39;;;;;;;6.85;5.93;;;10.70;99.90;;;;;;5084398;28;20438;-77
2023/03/18 07:24:06;;;;;;;7.03;6.32;;;10.90;99.90;;;;;;5088186;28;20424;-76
2023/03/18 07:26:33;;;;;;;6.40;5.80;;;10.90;99.90;;;;;;5083755;28;20424;-77
2023/03/18 07:29:00;;;;;;;6.70;6.10;;;11.00;99.90;;;;;;5081563;28;20431;-76
2023/03/18 07:31:27;;;;;;;6.32;5.72;;;11.10;99.90;;;;;;5084386;28;20858;-77
2023/03/18 07:33:56;;;;;;;8.00;6.10;;;11.10;99.90;;;;;;5074894;28;20972;-77
2023/03/18 07:36:24;;;;;;;7.18;5.80;;;11.20;99.90;;;;;;5083217;28;20496;-77
2023/03/18 07:38:50;;;;;;;5.50;5.10;;;11.30;99.90;;;;;;5083091;28;20603;-77
2023/03/18 07:41:17;;;;;;;6.07;5.57;;;11.40;99.90;;;;;;5081972;28;20423;-78
2023/03/18 07:43:45;;;;;;;6.05;5.45;;;11.60;99.90;;;;;;5075383;28;21099;-76
2023/03/18 07:46:12;;;;;;;5.88;5.38;;;11.70;99.90;;;;;;5068535;28;20485;-77
2023/03/18 07:48:39;;;;;;;6.40;5.80;;;11.80;99.90;;;;;;5076593;28;20714;-77
2023/03/18 07:51:07;;;;;;;5.70;5.18;;;11.90;99.90;;;;;;5078979;28;20442;-77
2023/03/18 07:53:34;;;;;;;6.30;5.70;;;11.90;99.90;;;;;;5075514;28;20483;-78
2023/03/18 07:56:02;;;;;;;6.10;5.60;;;12.00;99.90;;;;;;5083768;28;20700;-78
2023/03/18 07:58:29;;;;;;;6.00;5.50;;;12.10;99.90;;;;;;5070656;28;20513;-77
2023/03/18 08:00:56;;;;;;;6.10;5.50;;;12.20;99.90;;;;;;5064205;28;20434;-76
2023/03/18 08:03:23;;;;;;;5.60;5.07;;;12.30;99.90;;;;;;5060616;28;20459;-76
2023/03/18 08:05:50;;;;;;;5.60;5.00;;;12.50;99.90;;;;;;5071259;28;20454;-77
2023/03/18 08:08:18;;;;;;;4.63;4.23;;;12.60;99.40;;;;;;5079271;28;20605;-77
2023/03/18 08:10:45;;;;;;;5.50;4.50;;;12.70;99.20;;;;;;5072349;28;20451;-77
2023/03/18 08:13:12;;;;;;;4.80;4.40;;;12.90;98.60;;;;;;5070594;28;20505;-77
2023/03/18 08:15:39;;;;;;;6.00;4.75;;;13.10;97.80;;;;;;5075590;28;20487;-78
2023/03/18 08:18:07;;;;;;;5.20;4.70;;;13.10;97.10;;;;;;5076034;28;20541;-78
2023/03/18 08:20:33;;;;;;;4.43;4.10;;;13.20;97.40;;;;;;5085915;28;20457;-78
2023/03/18 08:23:02;;;;;;;5.13;4.63;;;13.20;97.40;;;;;;5059660;28;20431;-65
2023/03/18 08:25:31;;;;;;;4.22;3.83;;;13.40;96.50;;;;;;5064301;28;20420;-65
2023/03/18 08:27:58;;;;;;;5.20;4.70;;;13.50;96.00;;;;;;5061375;28;20799;-64
2023/03/18 08:30:27;;;;;;;4.60;4.10;;;13.60;95.80;;;;;;5058507;28;20451;-65
2023/03/18 08:32:54;;;;;;;4.70;4.30;;;13.70;95.50;;;;;;5065723;28;20447;-78
2023/03/18 08:35:22;;;;;;;5.20;4.18;;;13.80;95.80;;;;;;5064211;28;20434;-78
2023/03/18 08:37:50;;;;;;;4.30;3.90;;;14.00;94.50;;;;;;5070214;28;20714;-78
2023/03/18 08:40:17;;;;;;;3.80;3.50;;;14.10;94.50;;;;;;5078296;28;20432;-77
2023/03/18 08:42:45;;;;;;;4.15;3.75;;;14.20;94.20;;;;;;5087135;28;20441;-77
2023/03/18 08:45:13;;;;;;;4.38;3.90;;;14.20;94.10;;;;;;5088954;28;20416;-78
2023/03/18 08:47:40;;;;;;;4.20;3.80;;;14.20;93.40;;;;;;5068047;28;20446;-78
2023/03/18 08:50:08;;;;;;;5.65;4.00;;;14.20;92.70;;;;;;5071318;28;20580;-79
2023/03/18 08:52:37;;;;;;;4.10;3.80;;;14.30;93.20;;;;;;5072371;28;20636;-78
2023/03/18 08:55:08;;;;;;;3.95;3.50;;;14.40;92.20;;;;;;5075852;28;20428;-79
2023/03/18 08:57:36;;;;;;;4.33;3.80;;;14.50;91.80;;;;;;5075508;28;20419;-80
2023/03/18 09:00:06;;;;;;;4.00;3.70;;;14.50;91.90;;;;;;5083689;28;20518;-81
2023/03/18 09:02:33;;;;;;;4.10;3.42;;;14.60;91.40;;;;;;5081940;28;20422;-79
2023/03/18 09:05:00;;;;;;;4.72;4.05;;;14.70;90.60;;;;;;5071834;28;20507;-80
2023/03/18 09:07:29;;;;;;;4.80;3.50;;;14.60;90.60;;;;;;5075390;28;21017;-79
2023/03/18 09:09:56;;;;;;;4.65;4.00;;;14.50;90.90;;;;;;5074245;28;20783;-78
2023/03/18 09:12:23;;;;;;;4.45;3.30;;;14.60;91.00;;;;;;5069501;28;20434;-78
2023/03/18 09:14:50;;;;;;;4.35;3.20;;;14.80;90.40;;;;;;5072125;28;20570;-79
2023/03/18 09:17:20;;;;;;;4.30;3.42;;;14.80;89.40;;;;;;5077043;28;20519;-78
2023/03/18 09:19:46;;;;;;;4.30;3.90;;;14.70;88.70;;;;;;5075700;28;20423;-77
2023/03/18 09:22:13;;;;;;;3.55;3.20;;;14.80;90.10;;;;;;5062469;28;20432;-77
2023/03/18 09:24:40;;;;;;;4.20;3.80;;;14.80;89.50;;;;;;5074659;28;20519;-77
2023/03/18 09:27:07;;;;;;;4.18;3.30;;;14.90;90.00;;;;;;5068688;28;20525;-65
2023/03/18 09:29:33;;;;;;;4.30;3.45;;;14.90;88.10;;;;;;5070904;28;20507;-66
2023/03/18 09:32:00;;;;;;;4.75;3.83;;;15.00;88.20;;;;;;5055879;28;20431;-65
2023/03/18 09:34:28;;;;;;;4.60;3.60;;;15.00;88.30;;;;;;5068773;28;20836;-64
2023/03/18 09:36:56;;;;;;;4.15;3.55;;;15.10;87.00;;;;;;5072191;28;20896;-64
2023/03/18 09:39:23;;;;;;;3.83;3.53;;;15.20;86.90;;;;;;5067571;28;20423;-66
2023/03/18 09:42:07;;;;;;;5.20;3.28;;;15.40;86.60;;;;;;5065961;28;20427;-65
2023/03/18 09:44:36;;;;;;;3.88;3.17;;;15.60;86.30;;;;;;5074836;28;20665;-65
2023/03/18 09:47:25;;;;;;;3.63;3.22;;;16.10;82.30;;;;;;5067840;28;20415;-64
2023/03/18 09:50:14;;;;;;;3.55;3.25;;;16.30;78.60;;;;;;5061675;28;20527;-64
2023/03/18 09:52:46;;;;;;;3.80;3.40;;;16.40;81.00;;;;;;5077828;28;20446;-66
2023/03/18 09:55:21;;;;;;;4.70;2.90;;;16.40;77.70;;;;;;5078215;28;20431;-65
2023/03/18 09:57:51;;;;;;;5.00;3.20;;;16.40;78.50;;;;;;5070159;28;20497;-64
2023/03/18 10:00:23;;;;;;;3.50;3.20;;;16.60;75.20;;;;;;5085447;28;20878;-65
2023/03/18 10:02:53;;;;;;;3.35;3.00;;;16.50;74.60;;;;;;5065446;28;20480;-65
2023/03/18 10:05:29;;;;;;;3.95;3.28;;;16.50;74.60;;;;;;5068986;28;20437;-67
2023/03/18 10:08:01;;;;;;;4.07;3.38;;;16.50;75.30;;;;;;5057861;28;20449;-67
2023/03/18 10:10:32;;;;;;;3.22;2.92;;;16.60;75.20;;;;;;5065566;28;20815;-67
2023/03/18 10:13:07;;;;;;;3.40;3.08;;;16.80;73.20;;;;;;5067279;28;20435;-67
2023/03/18 10:15:40;;;;;;;3.80;3.20;;;17.00;71.60;;;;;;5066256;28;20915;-67
2023/03/18 10:18:12;;;;;;;3.15;2.80;;;17.10;72.40;;;;;;5059669;28;20466;-68
2023/03/18 10:20:52;;;;;;;3.28;2.80;;;17.30;73.20;;;;;;5066656;28;20934;-68
2023/03/18 10:23:24;;;;;;;3.90;2.80;;;17.60;70.50;;;;;;5082275;28;20427;-68
2023/03/18 10:25:53;;;;;;;3.47;2.85;;;17.90;67.10;;;;;;5072201;28;20916;-66
2023/03/18 10:28:43;;;;;;;3.50;2.63;;;18.10;63.80;;;;;;5080011;28;20440;-66
2023/03/18 10:31:24;;;;;;;4.40;2.65;;;18.30;69.70;;;;;;5069241;28;20903;-67
2023/03/18 10:33:58;;;;;;;3.30;3.00;;;18.70;69.60;;;;;;5062946;28;20448;-65
2023/03/18 10:36:36;;;;;;;2.83;2.40;;;18.60;67.30;;;;;;5070487;28;20435;-66
2023/03/18 10:39:03;;;;;;;3.60;2.60;;;18.70;66.50;;;;;;5064009;28;21506;-66
2023/03/18 10:41:33;;;;;;;4.32;2.30;;;18.70;65.90;;;;;;5070156;28;20435;-68
2023/03/18 10:44:04;;;;;;;3.03;2.20;;;18.70;62.60;;;;;;5084125;28;20514;-67
2023/03/18 10:46:33;;;;;;;2.90;2.47;;;18.60;61.90;;;;;;5068682;28;20435;-68
2023/03/18 10:49:05;;;;;;;12.32;3.75;;;18.60;61.00;;;;;;5064906;28;20431;-70
2023/03/18 10:51:44;;;;;;;15.13;5.40;;;18.50;62.70;;;;;;5066229;28;20423;-67
2023/03/18 10:54:15;;;;;;;2.35;1.90;;;18.70;61.70;;;;;;5062885;28;20438;-68
2023/03/18 10:56:43;;;;;;;2.25;1.80;;;19.00;58.70;;;;;;5062576;28;20450;-65
2023/03/18 10:59:14;;;;;;;2.65;1.70;;;19.30;57.40;;;;;;5061935;28;20831;-63
2023/03/18 11:01:43;;;;;;;2.85;1.70;;;19.40;58.20;;;;;;5056203;28;20522;-73
2023/03/18 11:04:14;;;;;;;7.97;2.10;;;19.50;56.60;;;;;;5054768;28;20581;-69
2023/03/18 11:06:46;;;;;;;3.72;2.00;;;19.60;55.70;;;;;;5056097;28;20889;-66
2023/03/18 11:09:17;;;;;;;2.80;1.60;;;19.70;55.10;;;;;;5055579;28;20517;-65
2023/03/18 11:11:45;;;;;;;2.80;1.80;;;19.80;54.20;;;;;;5053631;28;20469;-66
2023/03/18 11:14:16;;;;;;;4.10;1.95;;;19.90;54.50;;;;;;5055652;28;20425;-64
2023/03/18 11:16:48;;;;;;;2.95;1.60;;;20.00;53.80;;;;;;5054885;28;20442;-66
2023/03/18 11:19:30;;;;;;;2.90;2.15;;;20.30;53.20;;;;;;5051144;28;20624;-67
2023/03/18 11:22:14;;;;;;;2.10;1.90;;;20.20;53.10;;;;;;5052739;28;20439;-66
2023/03/18 11:24:42;;;;;;;2.90;1.60;;;20.30;51.30;;;;;;5053168;28;20503;-65
2023/03/18 11:27:34;;;;;;;2.00;1.60;;;20.00;52.80;;;;;;5057281;28;20458;-64
2023/03/18 11:30:06;;;;;;;2.00;1.50;;;19.90;52.60;;;;;;5056298;28;20802;-64
2023/03/18 11:32:35;;;;;;;2.28;1.60;;;19.50;54.60;;;;;;5051015;28;20459;-64
2023/03/18 11:35:05;;;;;;;2.03;1.80;;;19.30;55.00;;;;;;5057720;28;20450;-63
2023/03/18 11:37:36;;;;;;;2.75;1.52;;;19.50;53.90;;;;;;5065031;28;20927;-64
2023/03/18 11:40:24;;;;;;;3.78;1.92;;;19.30;55.10;;;;;;5076761;28;20862;-66
2023/03/18 11:42:56;;;;;;;3.17;1.83;;;19.30;53.70;;;;;;5060607;28;20473;-64
2023/03/18 11:45:47;;;;;;;2.65;1.65;;;19.20;54.30;;;;;;5062083;28;20933;-66
2023/03/18 11:48:23;;;;;;;1.90;1.55;;;19.10;56.10;;;;;;5058889;28;20578;-64
2023/03/18 11:51:06;;;;;;;1.60;1.33;;;19.00;55.60;;;;;;5066220;28;20431;-69
2023/03/18 11:53:48;;;;;;;1.88;1.60;;;19.00;56.50;;;;;;5063137;28;20762;-69
2023/03/18 11:56:22;;;;;;;2.25;1.67;;;19.10;56.50;;;;;;5055203;28;20423;-68
2023/03/18 11:59:05;;;;;;;2.40;1.58;;;19.30;55.80;;;;;;5060901;28;20428;-69
2023/03/18 12:01:43;;;;;;;2.80;1.40;;;19.70;52.60;;;;;;5062827;28;20428;-67
2023/03/18 12:04:32;;;;;;;2.43;1.50;;;19.90;53.00;;;;;;5060558;28;20881;-68
2023/03/18 12:07:17;;;;;;;2.20;1.40;;;20.00;51.60;;;;;;5066159;28;20443;-68
2023/03/18 12:09:52;;;;;;;2.88;1.25;;;20.00;52.20;;;;;;5064863;28;20428;-65
2023/03/18 12:12:36;;;;;;;2.97;1.20;;;20.10;52.40;;;;;;5061960;28;22317;-68
2023/03/18 12:15:12;;;;;;;2.43;1.43;;;20.20;52.00;;;;;;5063460;28;20428;-67
2023/03/18 12:17:49;;;;;;;2.28;1.40;;;20.10;51.90;;;;;;5059779;28;20447;-66
2023/03/18 12:20:39;;;;;;;4.97;2.10;;;19.90;52.20;;;;;;5063380;28;20428;-67
2023/03/18 12:23:20;;;;;;;3.83;1.42;;;19.60;54.30;;;;;;5059438;28;20503;-70
2023/03/18 12:26:00;;;;;;;3.10;1.33;;;19.40;55.60;;;;;;5066784;28;20497;-67
2023/03/18 12:28:44;;;;;;;2.45;1.48;;;19.30;55.10;;;;;;5063126;28;20435;-68
2023/03/18 12:31:32;;;;;;;3.30;1.73;;;19.40;56.00;;;;;;5062770;28;20514;-69
2023/03/18 12:34:01;;;;;;;3.72;1.70;;;19.40;57.60;;;;;;5059591;28;20462;-71
2023/03/18 12:36:43;;;;;;;2.08;1.45;;;19.40;56.30;;;;;;5060841;28;20658;-70
2023/03/18 12:39:45;;;;;;;1.90;1.40;;;19.60;55.50;;;;;;5059853;28;20489;-69
2023/03/18 12:42:17;;;;;;;2.30;1.20;;;19.60;55.70;;;;;;5061776;28;20473;-69
2023/03/18 12:44:56;;;;;;;1.67;1.00;;;19.60;53.00;;;;;;5058619;28;20432;-69
2023/03/18 12:47:30;;;;;;;1.90;1.20;;;19.50;55.50;;;;;;5060297;28;20446;-67
2023/03/18 12:50:00;;;;;;;2.85;1.50;;;19.20;54.10;;;;;;5066300;28;20427;-69
2023/03/18 12:52:32;;;;;;;2.80;1.48;;;19.10;56.70;;;;;;5062110;28;20797;-68
2023/03/18 12:55:04;;;;;;;2.65;1.30;;;19.00;58.00;;;;;;5072846;28;20431;-65
2023/03/18 12:57:42;;;;;;;1.80;1.40;;;18.80;58.00;;;;;;5059621;28;20928;-68
2023/03/18 13:00:22;;;;;;;2.80;1.40;;;18.60;58.60;;;;;;5062591;28;21245;-71